sensor_id;sensor_type;location;lat;lon;timestamp;pressure;altitude;pressure_sealevel;temperature;humidity
71043;BME280;58696;52.134;5.500;2022-07-15T00:00:05;102251.13;;;13.01;80.84
71043;BME280;58696;52.134;5.500;2022-07-15T00:02:32;102255.50;;;13.01;80.80
71043;BME280;58696;52.134;5.500;2022-07-15T00:04:59;102247.47;;;12.96;81.00
71043;BME280;58696;52.134;5.500;2022-07-15T00:07:26;102250.84;;;12.92;80.91
71043;BME280;58696;52.134;5.500;2022-07-15T00:09:53;102254.19;;;12.86;81.05
71043;BME280;58696;52.134;5.500;2022-07-15T00:12:38;102258.47;;;12.84;81.28
71043;BME280;58696;52.134;5.500;2022-07-15T00:15:06;102267.16;;;12.81;81.19
71043;BME280;58696;52.134;5.500;2022-07-15T00:17:34;102258.25;;;12.76;81.14
71043;BME280;58696;52.134;5.500;2022-07-15T00:20:01;102261.59;;;12.70;81.15
71043;BME280;58696;52.134;5.500;2022-07-15T00:22:28;102257.97;;;12.67;81.57
71043;BME280;58696;52.134;5.500;2022-07-15T00:24:54;102257.03;;;12.65;81.82
71043;BME280;58696;52.134;5.500;2022-07-15T00:27:21;102251.59;;;12.58;82.10
71043;BME280;58696;52.134;5.500;2022-07-15T00:29:51;102254.09;;;12.54;82.03
71043;BME280;58696;52.134;5.500;2022-07-15T00:32:20;102253.09;;;12.50;82.10
71043;BME280;58696;52.134;5.500;2022-07-15T00:34:47;102243.25;;;12.43;82.26
71043;BME280;58696;52.134;5.500;2022-07-15T00:37:14;102241.41;;;12.40;82.62
71043;BME280;58696;52.134;5.500;2022-07-15T00:39:41;102246.50;;;12.35;82.45
71043;BME280;58696;52.134;5.500;2022-07-15T00:42:11;102253.34;;;12.30;82.64
71043;BME280;58696;52.134;5.500;2022-07-15T00:44:39;102247.13;;;12.27;82.49
71043;BME280;58696;52.134;5.500;2022-07-15T00:47:10;102242.75;;;12.27;82.43
71043;BME280;58696;52.134;5.500;2022-07-15T00:49:37;102245.38;;;12.27;82.64
71043;BME280;58696;52.134;5.500;2022-07-15T00:52:04;102247.88;;;12.22;82.70
71043;BME280;58696;52.134;5.500;2022-07-15T00:54:31;102239.75;;;12.15;82.80
71043;BME280;58696;52.134;5.500;2022-07-15T00:56:59;102244.88;;;12.12;83.16
71043;BME280;58696;52.134;5.500;2022-07-15T00:59:32;102232.56;;;12.09;83.49
71043;BME280;58696;52.134;5.500;2022-07-15T01:02:03;102234.25;;;12.07;83.37
71043;BME280;58696;52.134;5.500;2022-07-15T01:04:30;102243.75;;;12.05;83.91
71043;BME280;58696;52.134;5.500;2022-07-15T01:06:57;102243.75;;;12.05;84.39
71043;BME280;58696;52.134;5.500;2022-07-15T01:09:24;102245.47;;;12.04;84.58
71043;BME280;58696;52.134;5.500;2022-07-15T01:11:51;102244.75;;;12.07;84.63
71043;BME280;58696;52.134;5.500;2022-07-15T01:14:18;102246.56;;;12.09;84.58
71043;BME280;58696;52.134;5.500;2022-07-15T01:16:49;102240.53;;;12.12;84.95
71043;BME280;58696;52.134;5.500;2022-07-15T01:19:16;102254.47;;;12.11;84.45
71043;BME280;58696;52.134;5.500;2022-07-15T01:21:44;102245.56;;;12.06;84.45
71043;BME280;58696;52.134;5.500;2022-07-15T01:24:11;102242.81;;;12.03;84.67
71043;BME280;58696;52.134;5.500;2022-07-15T01:26:41;102239.25;;;12.01;84.21
71043;BME280;58696;52.134;5.500;2022-07-15T01:29:07;102249.63;;;11.97;84.24
71043;BME280;58696;52.134;5.500;2022-07-15T01:31:34;102250.97;;;11.86;83.50
71043;BME280;58696;52.134;5.500;2022-07-15T01:34:01;102249.72;;;11.75;83.72
71043;BME280;58696;52.134;5.500;2022-07-15T01:36:28;102251.97;;;11.64;83.45
71043;BME280;58696;52.134;5.500;2022-07-15T01:38:56;102257.56;;;11.49;83.47
71043;BME280;58696;52.134;5.500;2022-07-15T01:41:47;102258.78;;;11.34;83.98
71043;BME280;58696;52.134;5.500;2022-07-15T01:44:14;102256.88;;;11.30;84.31
71043;BME280;58696;52.134;5.500;2022-07-15T01:46:40;102260.34;;;11.29;85.04
71043;BME280;58696;52.134;5.500;2022-07-15T01:49:08;102259.50;;;11.30;85.03
71043;BME280;58696;52.134;5.500;2022-07-15T01:51:53;102259.63;;;11.33;85.39
71043;BME280;58696;52.134;5.500;2022-07-15T01:54:21;102267.47;;;11.33;85.68
71043;BME280;58696;52.134;5.500;2022-07-15T01:56:53;102269.31;;;11.36;85.60
71043;BME280;58696;52.134;5.500;2022-07-15T01:59:22;102263.28;;;11.38;85.71
71043;BME280;58696;52.134;5.500;2022-07-15T02:01:52;102261.72;;;11.43;85.73
71043;BME280;58696;52.134;5.500;2022-07-15T02:04:19;102267.03;;;11.45;85.57
71043;BME280;58696;52.134;5.500;2022-07-15T02:06:47;102256.47;;;11.42;85.89
71043;BME280;58696;52.134;5.500;2022-07-15T02:09:14;102262.50;;;11.41;85.39
71043;BME280;58696;52.134;5.500;2022-07-15T02:11:41;102253.66;;;11.37;85.57
71043;BME280;58696;52.134;5.500;2022-07-15T02:14:08;102253.88;;;11.43;86.12
71043;BME280;58696;52.134;5.500;2022-07-15T02:16:36;102253.88;;;11.43;85.42
71043;BME280;58696;52.134;5.500;2022-07-15T02:19:03;102249.41;;;11.41;85.31
71043;BME280;58696;52.134;5.500;2022-07-15T02:21:30;102250.94;;;11.34;85.21
71043;BME280;58696;52.134;5.500;2022-07-15T02:23:59;102254.28;;;11.30;85.22
71043;BME280;58696;52.134;5.500;2022-07-15T02:26:27;102250.59;;;11.25;85.69
71043;BME280;58696;52.134;5.500;2022-07-15T02:28:54;102255.91;;;11.26;85.89
71043;BME280;58696;52.134;5.500;2022-07-15T02:31:21;102258.47;;;11.25;86.38
71043;BME280;58696;52.134;5.500;2022-07-15T02:33:49;102257.56;;;11.24;86.06
71043;BME280;58696;52.134;5.500;2022-07-15T02:36:19;102265.47;;;11.26;86.21
71043;BME280;58696;52.134;5.500;2022-07-15T02:38:46;102257.63;;;11.26;86.72
71043;BME280;58696;52.134;5.500;2022-07-15T02:41:13;102260.28;;;11.27;86.79
71043;BME280;58696;52.134;5.500;2022-07-15T02:43:40;102253.81;;;11.17;86.57
71043;BME280;58696;52.134;5.500;2022-07-15T02:46:09;102259.91;;;11.16;86.90
71043;BME280;58696;52.134;5.500;2022-07-15T02:48:36;102253.88;;;11.19;87.13
71043;BME280;58696;52.134;5.500;2022-07-15T02:51:03;102252.97;;;11.18;87.12
71043;BME280;58696;52.134;5.500;2022-07-15T02:53:31;102262.66;;;11.21;87.19
71043;BME280;58696;52.134;5.500;2022-07-15T02:55:57;102265.34;;;11.23;86.95
71043;BME280;58696;52.134;5.500;2022-07-15T02:58:28;102260.13;;;11.23;87.40
71043;BME280;58696;52.134;5.500;2022-07-15T03:00:56;102259.34;;;11.25;87.08
71043;BME280;58696;52.134;5.500;2022-07-15T03:03:23;102265.41;;;11.24;87.33
71043;BME280;58696;52.134;5.500;2022-07-15T03:05:53;102262.78;;;11.24;87.36
71043;BME280;58696;52.134;5.500;2022-07-15T03:08:20;102261.88;;;11.24;87.42
71043;BME280;58696;52.134;5.500;2022-07-15T03:10:47;102270.63;;;11.24;87.39
71043;BME280;58696;52.134;5.500;2022-07-15T03:13:14;102270.63;;;11.24;87.79
71043;BME280;58696;52.134;5.500;2022-07-15T03:15:40;102272.41;;;11.25;87.96
71043;BME280;58696;52.134;5.500;2022-07-15T03:18:09;102275.16;;;11.28;87.93
71043;BME280;58696;52.134;5.500;2022-07-15T03:20:35;102273.44;;;11.29;87.66
71043;BME280;58696;52.134;5.500;2022-07-15T03:23:07;102286.59;;;11.30;88.23
71043;BME280;58696;52.134;5.500;2022-07-15T03:25:34;102276.13;;;11.30;88.14
71043;BME280;58696;52.134;5.500;2022-07-15T03:28:01;102280.31;;;11.27;88.16
71043;BME280;58696;52.134;5.500;2022-07-15T03:30:27;102280.38;;;11.28;88.75
71043;BME280;58696;52.134;5.500;2022-07-15T03:32:55;102277.84;;;11.30;88.71
71043;BME280;58696;52.134;5.500;2022-07-15T03:35:22;102280.56;;;11.33;88.70
71043;BME280;58696;52.134;5.500;2022-07-15T03:37:50;102286.72;;;11.35;88.97
71043;BME280;58696;52.134;5.500;2022-07-15T03:40:17;102293.78;;;11.36;89.08
71043;BME280;58696;52.134;5.500;2022-07-15T03:42:45;102286.84;;;11.38;89.58
71043;BME280;58696;52.134;5.500;2022-07-15T03:45:11;102293.19;;;11.45;89.83
71043;BME280;58696;52.134;5.500;2022-07-15T03:47:43;102296.84;;;11.49;89.76
71043;BME280;58696;52.134;5.500;2022-07-15T03:50:10;102296.91;;;11.50;89.66
71043;BME280;58696;52.134;5.500;2022-07-15T03:52:38;102304.09;;;11.56;89.51
71043;BME280;58696;52.134;5.500;2022-07-15T03:55:06;102308.53;;;11.58;89.52
71043;BME280;58696;52.134;5.500;2022-07-15T03:57:36;102300.75;;;11.60;89.82
71043;BME280;58696;52.134;5.500;2022-07-15T04:00:04;102310.38;;;11.61;89.71
71043;BME280;58696;52.134;5.500;2022-07-15T04:02:31;102312.19;;;11.64;89.58
71043;BME280;58696;52.134;5.500;2022-07-15T04:04:58;102314.81;;;11.64;89.43
71043;BME280;58696;52.134;5.500;2022-07-15T04:07:25;102313.91;;;11.63;89.52
71043;BME280;58696;52.134;5.500;2022-07-15T04:09:52;102317.38;;;11.62;89.50
71043;BME280;58696;52.134;5.500;2022-07-15T04:12:19;102324.38;;;11.62;90.08
71043;BME280;58696;52.134;5.500;2022-07-15T04:14:46;102316.38;;;11.58;89.94
71043;BME280;58696;52.134;5.500;2022-07-15T04:17:13;102330.53;;;11.64;90.41
71043;BME280;58696;52.134;5.500;2022-07-15T04:19:42;102328.94;;;11.67;90.32
71043;BME280;58696;52.134;5.500;2022-07-15T04:22:09;102324.63;;;11.69;90.04
71043;BME280;58696;52.134;5.500;2022-07-15T04:24:36;102322.97;;;11.71;89.82
71043;BME280;58696;52.134;5.500;2022-07-15T04:27:06;102318.59;;;11.72;90.09
71043;BME280;58696;52.134;5.500;2022-07-15T04:29:34;102324.31;;;11.60;89.22
71043;BME280;58696;52.134;5.500;2022-07-15T04:32:02;102327.66;;;11.56;89.38
71043;BME280;58696;52.134;5.500;2022-07-15T04:34:29;102331.97;;;11.55;89.37
71043;BME280;58696;52.134;5.500;2022-07-15T04:36:56;102326.88;;;11.58;90.00
71043;BME280;58696;52.134;5.500;2022-07-15T04:39:22;102331.44;;;11.64;90.75
71043;BME280;58696;52.134;5.500;2022-07-15T04:41:49;102322.97;;;11.71;90.91
71043;BME280;58696;52.134;5.500;2022-07-15T04:44:18;102340.66;;;11.79;90.39
71043;BME280;58696;52.134;5.500;2022-07-15T04:46:45;102336.38;;;11.81;90.24
71043;BME280;58696;52.134;5.500;2022-07-15T04:49:12;102346.00;;;11.82;90.01
71043;BME280;58696;52.134;5.500;2022-07-15T04:51:59;102340.78;;;11.82;89.87
71043;BME280;58696;52.134;5.500;2022-07-15T04:54:26;102333.75;;;11.81;89.70
71043;BME280;58696;52.134;5.500;2022-07-15T04:56:56;102344.00;;;11.75;90.15
71043;BME280;58696;52.134;5.500;2022-07-15T04:59:22;102350.03;;;11.72;90.35
71043;BME280;58696;52.134;5.500;2022-07-15T05:01:51;102346.47;;;11.70;91.13
71043;BME280;58696;52.134;5.500;2022-07-15T05:04:21;102345.56;;;11.69;91.54
71043;BME280;58696;52.134;5.500;2022-07-15T05:06:48;102344.13;;;11.78;92.01
71043;BME280;58696;52.134;5.500;2022-07-15T05:09:14;102345.28;;;11.86;92.09
71043;BME280;58696;52.134;5.500;2022-07-15T05:11:41;102344.56;;;11.90;92.08
71043;BME280;58696;52.134;5.500;2022-07-15T05:14:08;102341.19;;;11.93;92.46
71043;BME280;58696;52.134;5.500;2022-07-15T05:16:35;102342.34;;;12.01;92.86
71043;BME280;58696;52.134;5.500;2022-07-15T05:19:02;102341.78;;;12.10;93.06
71043;BME280;58696;52.134;5.500;2022-07-15T05:21:29;102337.75;;;12.20;93.09
71043;BME280;58696;52.134;5.500;2022-07-15T05:23:56;102337.19;;;12.29;93.30
71043;BME280;58696;52.134;5.500;2022-07-15T05:26:43;102340.13;;;12.38;93.35
71043;BME280;58696;52.134;5.500;2022-07-15T05:29:11;102334.13;;;12.42;93.21
71043;BME280;58696;52.134;5.500;2022-07-15T05:31:38;102333.69;;;12.56;93.24
71043;BME280;58696;52.134;5.500;2022-07-15T05:34:08;102334.81;;;12.64;93.09
71043;BME280;58696;52.134;5.500;2022-07-15T05:36:35;102341.31;;;12.76;92.49
71043;BME280;58696;52.134;5.500;2022-07-15T05:39:02;102334.78;;;12.90;91.65
71043;BME280;58696;52.134;5.500;2022-07-15T05:41:28;102335.16;;;13.03;91.19
71043;BME280;58696;52.134;5.500;2022-07-15T05:43:59;102339.00;;;13.14;90.79
71043;BME280;58696;52.134;5.500;2022-07-15T05:46:27;102333.19;;;13.24;90.61
71043;BME280;58696;52.134;5.500;2022-07-15T05:48:55;102336.94;;;13.33;89.92
71043;BME280;58696;52.134;5.500;2022-07-15T05:51:24;102342.53;;;13.45;89.23
71043;BME280;58696;52.134;5.500;2022-07-15T05:53:51;102335.84;;;13.55;89.11
71043;BME280;58696;52.134;5.500;2022-07-15T05:56:21;102341.44;;;13.68;88.78
71043;BME280;58696;52.134;5.500;2022-07-15T05:58:50;102336.47;;;13.79;88.61
71043;BME280;58696;52.134;5.500;2022-07-15T06:01:20;102341.22;;;13.92;88.43
71043;BME280;58696;52.134;5.500;2022-07-15T06:03:50;102341.56;;;14.05;88.12
71043;BME280;58696;52.134;5.500;2022-07-15T06:06:18;102344.41;;;14.14;87.97
71043;BME280;58696;52.134;5.500;2022-07-15T06:08:49;102336.78;;;14.23;87.73
71043;BME280;58696;52.134;5.500;2022-07-15T06:11:15;102335.31;;;14.35;87.39
71043;BME280;58696;52.134;5.500;2022-07-15T06:13:42;102332.13;;;14.48;86.54
71043;BME280;58696;52.134;5.500;2022-07-15T06:16:09;102339.34;;;14.57;86.06
71043;BME280;58696;52.134;5.500;2022-07-15T06:18:36;102337.72;;;14.62;85.53
71043;BME280;58696;52.134;5.500;2022-07-15T06:21:08;102336.09;;;14.68;84.68
71043;BME280;58696;52.134;5.500;2022-07-15T06:23:35;102345.88;;;14.73;84.32
71043;BME280;58696;52.134;5.500;2022-07-15T06:26:04;102337.28;;;14.81;83.76
71043;BME280;58696;52.134;5.500;2022-07-15T06:28:30;102333.03;;;14.86;83.14
71043;BME280;58696;52.134;5.500;2022-07-15T06:30:58;102332.34;;;14.93;83.02
71043;BME280;58696;52.134;5.500;2022-07-15T06:33:24;102329.00;;;15.02;83.02
71043;BME280;58696;52.134;5.500;2022-07-15T06:35:52;102330.88;;;15.08;82.46
71043;BME280;58696;52.134;5.500;2022-07-15T06:38:23;102339.88;;;15.16;81.81
71043;BME280;58696;52.134;5.500;2022-07-15T06:40:53;102334.66;;;15.21;81.10
71043;BME280;58696;52.134;5.500;2022-07-15T06:43:19;102341.75;;;15.23;81.05
71043;BME280;58696;52.134;5.500;2022-07-15T06:45:46;102343.59;;;15.27;81.21
71043;BME280;58696;52.134;5.500;2022-07-15T06:48:13;102345.38;;;15.28;80.96
71043;BME280;58696;52.134;5.500;2022-07-15T06:50:40;102338.44;;;15.32;80.34
71043;BME280;58696;52.134;5.500;2022-07-15T06:53:09;102344.78;;;15.42;79.96
71043;BME280;58696;52.134;5.500;2022-07-15T06:55:36;102343.34;;;15.58;80.31
71043;BME280;58696;52.134;5.500;2022-07-15T06:58:05;102346.38;;;15.78;79.90
71043;BME280;58696;52.134;5.500;2022-07-15T07:00:32;102351.00;;;15.90;77.75
71043;BME280;58696;52.134;5.500;2022-07-15T07:02:59;102345.97;;;16.03;77.18
71043;BME280;58696;52.134;5.500;2022-07-15T07:05:27;102350.69;;;16.21;76.47
71043;BME280;58696;52.134;5.500;2022-07-15T07:07:54;102343.00;;;16.35;76.53
71043;BME280;58696;52.134;5.500;2022-07-15T07:10:21;102345.66;;;16.37;75.27
71043;BME280;58696;52.134;5.500;2022-07-15T07:12:50;102349.22;;;16.37;74.85
71043;BME280;58696;52.134;5.500;2022-07-15T07:15:17;102347.72;;;16.53;74.37
71043;BME280;58696;52.134;5.500;2022-07-15T07:17:45;102347.84;;;16.63;74.02
71043;BME280;58696;52.134;5.500;2022-07-15T07:20:13;102346.91;;;16.57;73.42
71043;BME280;58696;52.134;5.500;2022-07-15T07:22:43;102353.84;;;16.52;73.82
71043;BME280;58696;52.134;5.500;2022-07-15T07:25:10;102362.88;;;16.67;73.60
71043;BME280;58696;52.134;5.500;2022-07-15T07:27:37;102361.31;;;16.80;73.17
71043;BME280;58696;52.134;5.500;2022-07-15T07:30:05;102358.84;;;16.91;72.15
71043;BME280;58696;52.134;5.500;2022-07-15T07:32:33;102351.91;;;16.99;71.82
71043;BME280;58696;52.134;5.500;2022-07-15T07:35:05;102352.69;;;16.93;71.35
71043;BME280;58696;52.134;5.500;2022-07-15T07:37:36;102355.34;;;16.93;71.40
71043;BME280;58696;52.134;5.500;2022-07-15T07:40:06;102351.78;;;16.90;71.31
71043;BME280;58696;52.134;5.500;2022-07-15T07:42:36;102361.41;;;16.88;71.78
71043;BME280;58696;52.134;5.500;2022-07-15T07:45:05;102357.88;;;16.84;71.76
71043;BME280;58696;52.134;5.500;2022-07-15T07:47:34;102363.06;;;16.79;72.17
71043;BME280;58696;52.134;5.500;2022-07-15T07:50:04;102360.41;;;16.79;71.42
71043;BME280;58696;52.134;5.500;2022-07-15T07:52:31;102352.59;;;16.85;70.90
71043;BME280;58696;52.134;5.500;2022-07-15T07:55:01;102358.97;;;16.98;70.38
71043;BME280;58696;52.134;5.500;2022-07-15T07:57:29;102354.75;;;17.12;70.23
71043;BME280;58696;52.134;5.500;2022-07-15T07:59:55;102356.47;;;17.08;69.50
71043;BME280;58696;52.134;5.500;2022-07-15T08:02:23;102353.81;;;17.06;69.04
71043;BME280;58696;52.134;5.500;2022-07-15T08:04:53;102361.13;;;17.26;68.90
71043;BME280;58696;52.134;5.500;2022-07-15T08:07:20;102360.78;;;17.74;69.49
71043;BME280;58696;52.134;5.500;2022-07-15T08:09:49;102357.06;;;18.38;68.35
71043;BME280;58696;52.134;5.500;2022-07-15T08:12:18;102357.69;;;19.32;66.41
71043;BME280;58696;52.134;5.500;2022-07-15T08:14:48;102356.16;;;20.34;63.01
71043;BME280;58696;52.134;5.500;2022-07-15T08:17:16;102357.91;;;20.68;62.75
71043;BME280;58696;52.134;5.500;2022-07-15T08:19:43;102363.25;;;20.54;60.47
71043;BME280;58696;52.134;5.500;2022-07-15T08:22:11;102359.69;;;20.07;61.16
71043;BME280;58696;52.134;5.500;2022-07-15T08:24:41;102362.19;;;19.58;60.90
71043;BME280;58696;52.134;5.500;2022-07-15T08:27:08;102362.91;;;19.17;61.73
71043;BME280;58696;52.134;5.500;2022-07-15T08:29:35;102370.56;;;18.76;62.07
71043;BME280;58696;52.134;5.500;2022-07-15T08:32:02;102371.31;;;18.56;63.86
71043;BME280;58696;52.134;5.500;2022-07-15T08:34:30;102367.56;;;18.31;64.82
71043;BME280;58696;52.134;5.500;2022-07-15T08:36:56;102371.22;;;18.45;63.77
71043;BME280;58696;52.134;5.500;2022-07-15T08:39:23;102357.03;;;18.35;62.14
71043;BME280;58696;52.134;5.500;2022-07-15T08:41:51;102362.59;;;18.71;62.74
71043;BME280;58696;52.134;5.500;2022-07-15T08:44:18;102355.09;;;19.49;62.91
71043;BME280;58696;52.134;5.500;2022-07-15T08:46:48;102349.09;;;20.30;57.21
71043;BME280;58696;52.134;5.500;2022-07-15T08:49:16;102355.28;;;20.57;58.42
71043;BME280;58696;52.134;5.500;2022-07-15T08:51:46;102346.41;;;20.94;58.31
71043;BME280;58696;52.134;5.500;2022-07-15T08:54:14;102350.81;;;20.93;56.24
71043;BME280;58696;52.134;5.500;2022-07-15T08:56:42;102350.81;;;20.78;55.58
71043;BME280;58696;52.134;5.500;2022-07-15T08:59:12;102354.38;;;20.36;54.63
71043;BME280;58696;52.134;5.500;2022-07-15T09:01:44;102363.22;;;20.04;56.06
71043;BME280;58696;52.134;5.500;2022-07-15T09:04:13;102359.63;;;19.85;56.15
71043;BME280;58696;52.134;5.500;2022-07-15T09:06:42;102363.16;;;19.82;56.45
71043;BME280;58696;52.134;5.500;2022-07-15T09:09:32;102354.34;;;19.99;56.17
71043;BME280;58696;52.134;5.500;2022-07-15T09:12:10;102345.53;;;20.45;56.82
71043;BME280;58696;52.134;5.500;2022-07-15T09:14:42;102352.59;;;20.66;55.88
71043;BME280;58696;52.134;5.500;2022-07-15T09:19:56;102346.34;;;20.97;53.34
71043;BME280;58696;52.134;5.500;2022-07-15T09:22:24;102341.97;;;20.66;53.45
71043;BME280;58696;52.134;5.500;2022-07-15T09:25:09;102341.09;;;20.72;55.59
71043;BME280;58696;52.134;5.500;2022-07-15T09:27:40;102341.06;;;20.94;56.05
71043;BME280;58696;52.134;5.500;2022-07-15T09:33:14;102336.66;;;20.63;52.44
71043;BME280;58696;52.134;5.500;2022-07-15T09:38:43;102348.97;;;21.14;53.31
71043;BME280;58696;52.134;5.500;2022-07-15T09:41:35;102334.69;;;21.36;53.53
71043;BME280;58696;52.134;5.500;2022-07-15T09:49:33;102330.97;;;21.74;52.28
71043;BME280;58696;52.134;5.500;2022-07-15T09:52:08;102338.13;;;21.61;51.91
71043;BME280;58696;52.134;5.500;2022-07-15T09:54:49;102330.97;;;21.72;53.68
71043;BME280;58696;52.134;5.500;2022-07-15T09:57:20;102332.81;;;21.58;52.04
71043;BME280;58696;52.134;5.500;2022-07-15T09:59:48;102330.25;;;21.41;51.72
71043;BME280;58696;52.134;5.500;2022-07-15T10:02:16;102333.81;;;21.37;53.57
71043;BME280;58696;52.134;5.500;2022-07-15T10:04:44;102332.03;;;21.36;53.73
71043;BME280;58696;52.134;5.500;2022-07-15T10:07:15;102326.72;;;21.34;52.48
71043;BME280;58696;52.134;5.500;2022-07-15T10:09:58;102324.13;;;21.28;50.70
71043;BME280;58696;52.134;5.500;2022-07-15T10:13:02;102324.19;;;21.11;51.55
71043;BME280;58696;52.134;5.500;2022-07-15T10:15:56;102317.06;;;21.22;51.06
71043;BME280;58696;52.134;5.500;2022-07-15T10:24:31;102308.19;;;21.23;52.39
71043;BME280;58696;52.134;5.500;2022-07-15T10:27:30;102310.81;;;21.31;51.30
71043;BME280;58696;52.134;5.500;2022-07-15T10:30:06;102311.72;;;21.20;50.62
71043;BME280;58696;52.134;5.500;2022-07-15T10:35:52;102310.09;;;20.63;49.07
71043;BME280;58696;52.134;5.500;2022-07-15T10:38:35;102314.56;;;20.47;51.38
71043;BME280;58696;52.134;5.500;2022-07-15T10:41:13;102313.66;;;20.43;51.66
71043;BME280;58696;52.134;5.500;2022-07-15T10:43:49;102304.81;;;20.44;49.81
71043;BME280;58696;52.134;5.500;2022-07-15T10:46:18;102294.16;;;20.68;49.96
71043;BME280;58696;52.134;5.500;2022-07-15T10:48:53;102298.44;;;21.16;50.45
71043;BME280;58696;52.134;5.500;2022-07-15T10:51:42;102289.28;;;21.73;47.66
71043;BME280;58696;52.134;5.500;2022-07-15T10:54:59;102297.81;;;22.19;47.89
71043;BME280;58696;52.134;5.500;2022-07-15T10:56:58;102282.41;;;22.51;46.74
71043;BME280;58696;52.134;5.500;2022-07-15T10:59:38;102285.88;;;22.62;46.35
71043;BME280;58696;52.134;5.500;2022-07-15T11:04:37;102288.97;;;22.14;46.59
71043;BME280;58696;52.134;5.500;2022-07-15T11:10:12;102284.00;;;21.62;47.85
71043;BME280;58696;52.134;5.500;2022-07-15T11:15:20;102267.88;;;21.92;49.86
71043;BME280;58696;52.134;5.500;2022-07-15T11:17:53;102265.75;;;22.31;48.46
71043;BME280;58696;52.134;5.500;2022-07-15T11:20:34;102255.03;;;22.36;47.80
71043;BME280;58696;52.134;5.500;2022-07-15T11:23:02;102272.06;;;22.19;46.64
71043;BME280;58696;52.134;5.500;2022-07-15T11:25:37;102272.97;;;22.18;49.48
71043;BME280;58696;52.134;5.500;2022-07-15T11:28:05;102265.94;;;22.13;46.63
71043;BME280;58696;52.134;5.500;2022-07-15T11:30:37;102271.38;;;21.97;48.87
71043;BME280;58696;52.134;5.500;2022-07-15T11:33:09;102268.03;;;21.62;48.79
71043;BME280;58696;52.134;5.500;2022-07-15T11:35:51;102272.63;;;21.41;49.85
71043;BME280;58696;52.134;5.500;2022-07-15T11:38:22;102269.13;;;21.30;49.90
71043;BME280;58696;52.134;5.500;2022-07-15T11:40:55;102273.63;;;21.17;49.08
71043;BME280;58696;52.134;5.500;2022-07-15T11:43:45;102274.56;;;21.08;49.09
71043;BME280;58696;52.134;5.500;2022-07-15T11:46:43;102273.75;;;20.90;50.99
71043;BME280;58696;52.134;5.500;2022-07-15T11:49:10;102272.88;;;20.79;50.65
71043;BME280;58696;52.134;5.500;2022-07-15T11:51:36;102265.84;;;20.54;50.45
71043;BME280;58696;52.134;5.500;2022-07-15T11:54:03;102265.00;;;20.38;51.31
71043;BME280;58696;52.134;5.500;2022-07-15T11:56:32;102257.94;;;20.29;51.17
71043;BME280;58696;52.134;5.500;2022-07-15T11:58:59;102265.91;;;20.22;52.67
71043;BME280;58696;52.134;5.500;2022-07-15T12:01:27;102258.78;;;20.36;53.62
71043;BME280;58696;52.134;5.500;2022-07-15T12:04:02;102265.88;;;20.51;52.94
71043;BME280;58696;52.134;5.500;2022-07-15T12:06:35;102259.66;;;20.51;52.71
71043;BME280;58696;52.134;5.500;2022-07-15T12:09:06;102253.50;;;20.27;51.86
71043;BME280;58696;52.134;5.500;2022-07-15T12:11:38;102262.38;;;20.23;53.61
71043;BME280;58696;52.134;5.500;2022-07-15T12:14:12;102265.03;;;20.16;53.16
71043;BME280;58696;52.134;5.500;2022-07-15T12:16:47;102263.25;;;20.20;54.32
71043;BME280;58696;52.134;5.500;2022-07-15T12:19:22;102249.97;;;20.26;54.62
71043;BME280;58696;52.134;5.500;2022-07-15T12:21:58;102248.19;;;20.39;54.47
71043;BME280;58696;52.134;5.500;2022-07-15T12:24:26;102246.41;;;20.37;55.08
71043;BME280;58696;52.134;5.500;2022-07-15T12:27:02;102249.94;;;20.40;54.69
71043;BME280;58696;52.134;5.500;2022-07-15T12:29:31;102248.19;;;20.46;55.51
71043;BME280;58696;52.134;5.500;2022-07-15T12:32:24;102246.28;;;20.79;54.11
71043;BME280;58696;52.134;5.500;2022-07-15T12:34:57;102252.34;;;21.23;54.05
71043;BME280;58696;52.134;5.500;2022-07-15T12:40:10;102257.59;;;21.32;51.02
71043;BME280;58696;52.134;5.500;2022-07-15T12:45:18;102255.06;;;21.15;49.58
71043;BME280;58696;52.134;5.500;2022-07-15T12:48:09;102253.28;;;21.13;51.24
71043;BME280;58696;52.134;5.500;2022-07-15T12:50:56;102257.78;;;21.00;50.89
71043;BME280;58696;52.134;5.500;2022-07-15T12:53:25;102260.47;;;20.84;49.73
71043;BME280;58696;52.134;5.500;2022-07-15T12:55:57;102258.59;;;21.11;50.61
71043;BME280;58696;52.134;5.500;2022-07-15T12:58:27;102260.03;;;21.75;50.42
71043;BME280;58696;52.134;5.500;2022-07-15T13:01:08;102259.38;;;22.46;49.97
71043;BME280;58696;52.134;5.500;2022-07-15T13:03:35;102263.91;;;22.40;48.40
71043;BME280;58696;52.134;5.500;2022-07-15T13:06:06;102255.34;;;22.03;49.01
71043;BME280;58696;52.134;5.500;2022-07-15T13:08:39;102266.13;;;21.88;50.45
71043;BME280;58696;52.134;5.500;2022-07-15T13:11:08;102260.94;;;21.67;49.29
71043;BME280;58696;52.134;5.500;2022-07-15T13:13:37;102260.16;;;21.48;49.65
71043;BME280;58696;52.134;5.500;2022-07-15T13:16:05;102257.66;;;21.26;50.86
71043;BME280;58696;52.134;5.500;2022-07-15T13:18:35;102251.34;;;21.44;50.82
71043;BME280;58696;52.134;5.500;2022-07-15T13:21:04;102253.81;;;21.76;50.38
71043;BME280;58696;52.134;5.500;2022-07-15T13:23:31;102242.28;;;21.74;49.99
71043;BME280;58696;52.134;5.500;2022-07-15T13:25:58;102246.75;;;21.65;49.36
71043;BME280;58696;52.134;5.500;2022-07-15T13:28:25;102252.16;;;21.53;50.50
71043;BME280;58696;52.134;5.500;2022-07-15T13:30:52;102246.03;;;21.40;50.68
71043;BME280;58696;52.134;5.500;2022-07-15T13:33:19;102246.00;;;21.49;52.83
71043;BME280;58696;52.134;5.500;2022-07-15T13:35:46;102241.16;;;22.06;51.84
71043;BME280;58696;52.134;5.500;2022-07-15T13:38:13;102249.06;;;22.10;49.97
71043;BME280;58696;52.134;5.500;2022-07-15T13:40:40;102248.34;;;21.93;51.17